Fall River, Massachusetts
Current Conditions -  °F | °C
As of 2:53 AM on Saturday 29 Nov 2014 (Local Time) from KEWB Reporting Station
Clear Clear  
Wind Chill: 23°   Ceiling: Unl
Heat Index: 23°   Visibility: 10mi
Dew Point: 16°   Wind: 3mph
Humidity: 74%   Direction: NA
Pressure: 30.25"   Gusts: NA
Location:  41.7°N, 71.14°W
Report Text: KEWB 290753Z AUTO VRB03KT 10SM CLR M05/M09 A3025 RMK AO2 SLP244 T10501089
Loading
Personal Weather Stations






























Interactive Weather Map New forecast layout! Learn more

10-Day Weather Forecast

Advertisements
Track Severe Weather on mobile